Terminal Aerodrome Forecast
Issued by NWS

Home | Current Version | Previous Version | Text Only | Print | Product List | Glossary On
Versions: 1 2 3 4 5 6 7 8 9 10 11 12 13 14 15 16 17
168
FTUS41 KAKQ 281316 AAA
TAFPHF
TAF AMD
KPHF 281316Z 2813/2912 22007KT P6SM OVC014
     FM281400 23005KT P6SM SCT015 BKN025
     FM281600 18005KT P6SM SCT025 SCT040
     FM290800 20008KT P6SM BKN150=

USA.gov is the U.S. government's official web portal to all federal, state and local government web resources and services.